< < Back
Terminal Aerodrome Forecast


Current Version              Previous Versions:   1  2  3  4  5  6  7  8  9  

Terminal Aerodrome Forecast

001
FTUS42 KJAX 231900 AAA
TAFJAX
TAF AMD
KJAX 231947Z 2320/2418 14008KT P6SM VCTS BKN040CB
     FM240000 22004KT P6SM SCT250
     FM241400 25006KT P6SM SCT020 SCT250=



Latest METAR

484
SAUS80 KWBC 240400 CCA
MTRJAX
METAR KJAX 240356Z 19005KT 10SM FEW050 SCT250 26/25 A3001 RMK AO2 SLP162
T02610250


USA.gov is the U.S. government's official web portal to all federal, state and local government web resources and services.